Kezdőlap
METAR-TAF:

METAR-TAF

Repülőterek :

Greenville, Maine, Amerikai Egyesült Államok

földrajzi szélesség: 45-28N, földrajzi hosszúság: 069-35W, magasság: 427 m

Jelenlegi meteorológiai megfigyelések

A jelentés 29 perccel ezelõtt készült, 17:56 UTC
Különbözõ irányokból fújó szél 4 kt
Hőmérséklet 6°C
Páratartalom 42%
Légköri nyomás 1014 hPa

METAR: KGNR 231756Z AUTO VRB04KT 06/M06 A2994 RMK AO1 SLP154 T00561061 10056 21050 58018

Idő: 13:25 (18:25 UTC)


TAF: hiányzik

Meteorológiai megfigyelések és előrejelzések több, mint 4000 repülőtéren (METAR és TAF jelentéseket).

A térképen piros és sárga pontok jelzik az elérhető meteorológiai állomásokat.

Mozgassa az egeret a pont fölött, hogy megjelenjen az állomás neve.

Azután kattintson az időjárási megfigyelések és előrejelzések megtekintéséhez.

A térkép megváltoztatása: kattintson a fekete keresztel jelölt zöld gombra ráközelítéshez, a vonallal jelölt zöld gombra távolításhoz, vagy a zöld nyilakra a szomszédos térképek eléréséhez.


METAR-TAF: